createdAt,value
2019-04-30T00:01:07.522Z,9.90
2019-04-30T00:03:40.799Z,9.90
2019-04-30T00:06:10.524Z,9.90
2019-04-30T00:08:39.962Z,9.90
2019-04-30T00:11:10.922Z,9.90
2019-04-30T00:13:41.318Z,9.90
2019-04-30T00:16:15.362Z,9.90
2019-04-30T00:18:57.095Z,9.90
2019-04-30T00:21:18.742Z,9.90
2019-04-30T00:23:48.579Z,9.90
2019-04-30T00:26:18.199Z,9.90
2019-04-30T00:28:47.862Z,9.90
2019-04-30T00:31:23.654Z,9.90
2019-04-30T00:33:52.745Z,9.80
2019-04-30T00:36:21.438Z,9.80
2019-04-30T00:38:54.825Z,9.80
2019-04-30T00:41:25.577Z,9.90
2019-04-30T00:43:56.778Z,9.80
2019-04-30T00:46:29.323Z,9.80
2019-04-30T00:49:09.117Z,9.80
2019-04-30T00:51:32.074Z,9.80
2019-04-30T00:54:02.115Z,9.80
2019-04-30T00:56:32.291Z,9.80
2019-04-30T00:59:02.678Z,9.80
2019-04-30T01:01:51.748Z,9.80
2019-04-30T01:04:28.132Z,9.80
2019-04-30T01:07:00.178Z,9.80
2019-04-30T01:09:27.288Z,9.80
2019-04-30T01:11:56.693Z,9.70
2019-04-30T01:14:28.289Z,9.80
2019-04-30T01:16:59.287Z,9.80
2019-04-30T01:19:30.661Z,9.80
2019-04-30T01:21:59.432Z,9.80
2019-04-30T01:24:31.794Z,9.70
2019-04-30T01:27:06.910Z,9.80
2019-04-30T01:29:40.885Z,9.80
2019-04-30T01:32:12.245Z,9.80
2019-04-30T01:34:39.508Z,9.70
2019-04-30T01:37:08.744Z,9.70
2019-04-30T01:39:39.116Z,9.70
2019-04-30T01:42:11.425Z,9.70
2019-04-30T01:44:43.450Z,9.80
2019-04-30T01:47:10.253Z,9.80
2019-04-30T01:49:44.877Z,9.70
2019-04-30T01:52:14.225Z,9.80
2019-04-30T01:54:43.864Z,9.90
2019-04-30T01:57:15.064Z,9.90
2019-04-30T02:00:02.688Z,10.00
2019-04-30T02:02:39.683Z,10.00
2019-04-30T02:05:11.905Z,10.00
2019-04-30T02:07:41.503Z,10.10
2019-04-30T02:10:12.123Z,10.00
2019-04-30T02:12:41.563Z,10.00
2019-04-30T02:15:10.843Z,10.00
2019-04-30T02:17:40.306Z,10.00
2019-04-30T02:20:10.524Z,10.00
2019-04-30T02:22:39.624Z,10.00
2019-04-30T02:25:10.803Z,10.00
2019-04-30T02:27:40.688Z,10.00
2019-04-30T02:30:11.542Z,10.00
2019-04-30T02:32:41.284Z,10.00
2019-04-30T02:35:29.003Z,9.90
2019-04-30T02:38:12.008Z,10.00
2019-04-30T02:40:42.620Z,10.00
2019-04-30T02:43:13.583Z,10.00
2019-04-30T02:45:45.165Z,10.00
2019-04-30T02:48:16.364Z,10.10
2019-04-30T02:50:49.135Z,10.10
2019-04-30T02:53:52.885Z,10.00
2019-04-30T02:56:26.569Z,9.90
2019-04-30T02:58:54.885Z,9.80
2019-04-30T03:01:24.164Z,9.80
2019-04-30T03:03:56.460Z,9.80
2019-04-30T03:06:26.199Z,9.80
2019-04-30T03:08:56.124Z,9.80
2019-04-30T03:11:25.558Z,9.70
2019-04-30T03:13:54.823Z,9.70
2019-04-30T03:16:25.499Z,9.70
2019-04-30T03:18:56.379Z,9.60
2019-04-30T03:21:42.916Z,9.60
2019-04-30T03:24:12.538Z,9.60
2019-04-30T03:26:41.998Z,9.50
2019-04-30T03:29:11.768Z,9.50
2019-04-30T03:31:44.604Z,9.40
2019-04-30T03:34:24.132Z,9.40
2019-04-30T03:36:43.160Z,9.30
2019-04-30T03:39:12.641Z,9.30
2019-04-30T03:41:42.088Z,9.20
2019-04-30T03:44:21.814Z,9.10
2019-04-30T03:46:42.959Z,9.10
2019-04-30T03:49:13.490Z,9.10
2019-04-30T03:51:43.001Z,9.10
2019-04-30T03:54:15.303Z,9.10
2019-04-30T03:56:45.279Z,9.10
2019-04-30T03:59:14.559Z,9.20
2019-04-30T04:01:49.744Z,9.20
2019-04-30T04:04:30.907Z,9.30
2019-04-30T04:07:04.659Z,9.50
2019-04-30T04:09:41.560Z,9.60
2019-04-30T04:12:24.668Z,9.60
2019-04-30T04:14:56.096Z,9.70
2019-04-30T04:17:25.627Z,9.70
2019-04-30T04:19:59.562Z,9.80
2019-04-30T04:22:25.880Z,9.90
2019-04-30T04:24:56.040Z,9.90
2019-04-30T04:27:25.799Z,9.90
2019-04-30T04:30:00.724Z,9.90
2019-04-30T04:32:30.909Z,10.00
2019-04-30T04:35:00.349Z,10.10
2019-04-30T04:37:30.592Z,10.10
2019-04-30T04:40:00.050Z,10.20
2019-04-30T04:42:33.113Z,10.30
2019-04-30T04:45:03.080Z,10.60
2019-04-30T04:47:32.079Z,10.80
2019-04-30T04:50:02.042Z,10.80
2019-04-30T04:52:32.021Z,10.90
2019-04-30T04:55:10.253Z,11.00
2019-04-30T04:57:40.147Z,11.00
2019-04-30T05:00:11.498Z,10.90
2019-04-30T05:03:00.905Z,10.80
2019-04-30T05:05:30.239Z,10.90
2019-04-30T05:07:59.639Z,10.90
2019-04-30T05:10:29.505Z,10.80
2019-04-30T05:13:00.479Z,10.80
2019-04-30T05:15:30.140Z,10.80
2019-04-30T05:18:05.699Z,10.90
2019-04-30T05:20:35.199Z,10.90
2019-04-30T05:23:04.598Z,11.00
2019-04-30T05:25:34.629Z,11.20
2019-04-30T05:28:03.678Z,11.20
2019-04-30T05:30:33.239Z,11.20
2019-04-30T05:33:05.241Z,11.10
2019-04-30T05:35:34.719Z,11.10
2019-04-30T05:38:03.979Z,11.00
2019-04-30T05:40:33.939Z,11.00
2019-04-30T05:43:03.578Z,11.00
2019-04-30T05:45:33.775Z,11.10
2019-04-30T05:48:03.338Z,11.10
2019-04-30T05:50:35.960Z,11.00
2019-04-30T05:53:05.159Z,11.00
2019-04-30T05:55:36.999Z,11.00
2019-04-30T05:58:09.188Z,11.10
2019-04-30T06:00:39.979Z,11.00
2019-04-30T06:03:11.019Z,11.00
2019-04-30T06:05:41.181Z,11.00
2019-04-30T06:08:12.080Z,11.00
2019-04-30T06:10:42.828Z,10.90
2019-04-30T06:13:20.040Z,10.90
2019-04-30T06:15:58.814Z,11.10
2019-04-30T06:18:28.681Z,11.20
2019-04-30T06:20:59.531Z,11.20
2019-04-30T06:23:29.378Z,11.10
2019-04-30T06:26:06.927Z,11.20
2019-04-30T06:28:31.045Z,11.20
2019-04-30T06:31:00.427Z,11.10
2019-04-30T06:33:29.925Z,11.00
2019-04-30T06:36:00.719Z,11.00
2019-04-30T06:38:30.458Z,10.90
2019-04-30T06:40:59.939Z,10.80
2019-04-30T06:43:39.817Z,10.80
2019-04-30T06:46:09.258Z,10.70
2019-04-30T06:48:41.850Z,10.70
2019-04-30T06:51:11.398Z,10.80
2019-04-30T06:53:40.778Z,10.80
2019-04-30T06:56:10.318Z,10.80
2019-04-30T06:58:41.378Z,10.80
2019-04-30T07:01:11.024Z,10.80
2019-04-30T07:03:40.584Z,10.80
2019-04-30T07:06:10.224Z,10.80
2019-04-30T07:08:55.777Z,10.80
2019-04-30T07:11:33.039Z,10.80
2019-04-30T07:14:04.502Z,10.80
2019-04-30T07:16:34.138Z,10.80
2019-04-30T07:19:04.497Z,10.80
2019-04-30T07:21:36.412Z,10.70
2019-04-30T07:24:05.717Z,10.70
2019-04-30T07:26:38.799Z,10.70
2019-04-30T07:29:07.139Z,10.80
2019-04-30T07:31:39.294Z,10.80
2019-04-30T07:34:09.423Z,10.80
2019-04-30T07:36:48.292Z,10.70
2019-04-30T07:39:11.019Z,10.70
2019-04-30T07:41:59.955Z,10.70
2019-04-30T07:44:36.228Z,10.70
2019-04-30T07:47:02.072Z,10.60
2019-04-30T07:49:47.060Z,10.60
2019-04-30T07:52:04.064Z,10.50
2019-04-30T07:54:33.898Z,10.60
2019-04-30T07:57:03.239Z,10.50
2019-04-30T07:59:33.452Z,10.50
2019-04-30T08:02:10.871Z,10.40
2019-04-30T08:04:45.480Z,10.40
2019-04-30T08:07:15.811Z,10.30
2019-04-30T08:09:45.404Z,10.30
2019-04-30T08:12:25.907Z,10.40
2019-04-30T08:14:53.578Z,10.40
2019-04-30T08:17:23.618Z,10.30
2019-04-30T08:19:52.959Z,10.20
2019-04-30T08:22:26.177Z,10.10
2019-04-30T08:24:59.307Z,10.00
2019-04-30T08:27:32.997Z,9.90
2019-04-30T08:30:04.558Z,10.00
2019-04-30T08:32:34.002Z,10.00
2019-04-30T08:35:03.391Z,10.00
2019-04-30T08:37:33.236Z,10.00
2019-04-30T08:40:03.519Z,9.90
2019-04-30T08:42:35.283Z,10.00
2019-04-30T08:45:05.199Z,10.00
2019-04-30T08:47:35.030Z,10.00
2019-04-30T08:50:05.958Z,9.90
2019-04-30T08:52:37.112Z,9.90
2019-04-30T08:55:14.077Z,9.80
2019-04-30T08:57:39.744Z,9.80
2019-04-30T09:00:15.098Z,9.90
2019-04-30T09:02:44.240Z,9.80
2019-04-30T09:05:21.627Z,9.80
2019-04-30T09:07:51.912Z,9.90
2019-04-30T09:10:22.046Z,9.90
2019-04-30T09:12:52.054Z,9.80
2019-04-30T09:15:22.817Z,9.80
2019-04-30T09:18:03.240Z,9.70
2019-04-30T09:20:23.599Z,9.60
2019-04-30T09:22:56.382Z,9.60
2019-04-30T09:25:26.043Z,9.60
2019-04-30T09:28:04.515Z,9.60
2019-04-30T09:30:34.206Z,9.50
2019-04-30T09:33:11.201Z,9.50
2019-04-30T09:35:40.404Z,9.50
2019-04-30T09:38:11.684Z,9.50
2019-04-30T09:40:41.783Z,9.50
2019-04-30T09:43:11.401Z,9.50
2019-04-30T09:45:40.618Z,9.50
2019-04-30T09:48:09.797Z,9.40
2019-04-30T09:50:39.544Z,9.50
2019-04-30T09:53:10.266Z,9.40
2019-04-30T09:55:41.420Z,9.40
2019-04-30T09:58:17.045Z,9.40
2019-04-30T10:00:45.308Z,9.50
2019-04-30T10:03:15.197Z,9.50
2019-04-30T10:06:03.468Z,9.60
2019-04-30T10:08:32.589Z,9.60
2019-04-30T10:13:54.537Z,9.60
2019-04-30T10:16:25.460Z,9.50
2019-04-30T10:18:54.920Z,9.50
2019-04-30T10:21:25.560Z,9.50
2019-04-30T10:23:55.001Z,9.50
2019-04-30T10:26:24.922Z,9.60
2019-04-30T10:28:55.001Z,9.60
2019-04-30T10:31:24.461Z,9.60
2019-04-30T10:33:53.841Z,9.70
2019-04-30T10:36:23.604Z,9.70
2019-04-30T10:38:53.081Z,9.80
2019-04-30T10:41:24.977Z,9.90
2019-04-30T10:43:54.241Z,10.00
2019-04-30T10:46:23.621Z,10.00
2019-04-30T10:48:53.981Z,9.90
2019-04-30T10:51:24.122Z,9.80
2019-04-30T10:53:56.139Z,9.80
2019-04-30T10:56:26.038Z,9.90
2019-04-30T10:58:55.363Z,9.90
2019-04-30T11:01:24.724Z,10.00
2019-04-30T11:03:54.472Z,10.10
2019-04-30T11:06:25.777Z,10.10
2019-04-30T11:08:55.318Z,10.10
2019-04-30T11:11:25.438Z,10.10
2019-04-30T11:13:55.458Z,10.00
2019-04-30T11:16:27.478Z,10.00
2019-04-30T11:18:58.828Z,9.90
2019-04-30T11:21:29.595Z,9.90
2019-04-30T11:24:09.364Z,9.80
2019-04-30T11:26:40.212Z,9.80
2019-04-30T11:29:10.809Z,9.80
2019-04-30T11:31:42.204Z,9.80
2019-04-30T11:34:23.937Z,9.80
2019-04-30T11:36:53.442Z,9.90
2019-04-30T11:39:22.719Z,9.90
2019-04-30T11:41:54.627Z,10.00
2019-04-30T11:44:31.050Z,10.00
2019-04-30T11:47:01.140Z,10.00
2019-04-30T11:49:30.838Z,10.00
2019-04-30T11:52:00.281Z,10.00
2019-04-30T11:54:29.858Z,9.90
2019-04-30T11:56:59.344Z,10.00
2019-04-30T11:59:29.752Z,10.00
2019-04-30T12:02:01.705Z,10.00
2019-04-30T12:04:31.917Z,10.00
2019-04-30T12:07:02.824Z,10.10
2019-04-30T12:09:51.703Z,10.10
2019-04-30T12:12:20.865Z,10.20
2019-04-30T12:14:50.150Z,10.20
2019-04-30T12:17:19.434Z,10.10
2019-04-30T12:19:51.833Z,10.10
2019-04-30T12:22:21.065Z,10.10
2019-04-30T12:25:02.552Z,10.10
2019-04-30T12:27:23.894Z,10.10
2019-04-30T12:29:56.071Z,10.10
2019-04-30T12:32:25.908Z,10.10
2019-04-30T12:34:55.293Z,10.10
2019-04-30T12:37:24.708Z,10.10
2019-04-30T12:39:53.967Z,10.10
2019-04-30T12:42:24.129Z,10.10
2019-04-30T12:44:53.367Z,10.00
2019-04-30T12:47:22.687Z,10.00
2019-04-30T12:49:53.647Z,10.00
2019-04-30T12:52:24.705Z,10.00
2019-04-30T12:54:55.680Z,10.00
2019-04-30T12:57:34.779Z,9.90
2019-04-30T13:00:05.568Z,9.90
2019-04-30T13:02:35.386Z,9.90
2019-04-30T13:05:08.689Z,9.80
2019-04-30T13:07:39.840Z,9.80
2019-04-30T13:10:09.094Z,9.80
2019-04-30T13:12:39.640Z,9.80
2019-04-30T13:15:10.947Z,9.80
2019-04-30T13:17:40.518Z,9.70
2019-04-30T13:20:18.757Z,9.70
2019-04-30T13:22:40.598Z,9.70
2019-04-30T13:25:10.625Z,9.70
2019-04-30T13:27:44.413Z,9.60
2019-04-30T13:30:15.942Z,9.70
2019-04-30T13:35:45.162Z,9.70
2019-04-30T13:38:26.183Z,9.70
2019-04-30T13:40:58.809Z,9.70
2019-04-30T13:43:49.322Z,9.70
2019-04-30T13:46:23.260Z,9.70
2019-04-30T13:48:54.541Z,9.70
2019-04-30T13:51:25.618Z,9.70
2019-04-30T13:53:57.657Z,9.70
2019-04-30T13:56:29.279Z,9.70
2019-04-30T13:59:00.458Z,9.80
2019-04-30T14:01:30.904Z,9.80
2019-04-30T14:04:05.785Z,9.80
2019-04-30T14:06:41.084Z,9.80
2019-04-30T14:09:16.309Z,9.90
2019-04-30T14:11:46.143Z,10.00
2019-04-30T14:14:20.603Z,10.00
2019-04-30T14:16:52.924Z,10.10
2019-04-30T14:19:22.823Z,10.10
2019-04-30T14:21:53.263Z,10.10
2019-04-30T14:24:25.062Z,10.10
2019-04-30T14:27:02.226Z,10.10
2019-04-30T14:29:39.587Z,10.10
2019-04-30T14:32:09.963Z,10.10
2019-04-30T14:34:39.681Z,10.10
2019-04-30T14:37:11.361Z,10.10
2019-04-30T14:39:41.956Z,10.10
2019-04-30T14:42:15.564Z,10.10
2019-04-30T14:44:49.539Z,10.10
2019-04-30T14:47:32.631Z,10.20
2019-04-30T14:50:05.413Z,10.20
2019-04-30T14:52:41.285Z,10.30
2019-04-30T14:55:19.006Z,10.30
2019-04-30T14:57:51.957Z,10.30
2019-04-30T15:00:44.301Z,10.30
2019-04-30T15:03:19.386Z,10.30
2019-04-30T15:05:51.705Z,10.30
2019-04-30T15:08:23.818Z,10.20
2019-04-30T15:10:57.808Z,10.20
2019-04-30T15:13:34.278Z,10.20
2019-04-30T15:16:05.519Z,10.20
2019-04-30T15:18:42.579Z,10.20
2019-04-30T15:21:12.331Z,10.20
2019-04-30T15:23:43.999Z,10.20
2019-04-30T15:26:22.071Z,10.20
2019-04-30T15:28:49.197Z,10.30
2019-04-30T15:31:20.462Z,10.30
2019-04-30T15:34:02.292Z,10.30
2019-04-30T15:36:25.198Z,10.30
2019-04-30T15:38:58.705Z,10.30
2019-04-30T15:41:30.106Z,10.30
2019-04-30T15:44:02.121Z,10.20
2019-04-30T15:46:33.051Z,10.20
2019-04-30T15:49:04.568Z,10.30
2019-04-30T15:51:35.511Z,10.30
2019-04-30T15:54:06.064Z,10.20
2019-04-30T15:56:40.825Z,10.30
2019-04-30T15:59:13.727Z,10.30
2019-04-30T16:01:48.410Z,10.30
2019-04-30T16:04:31.186Z,10.30
2019-04-30T16:07:02.723Z,10.30
2019-04-30T16:09:35.120Z,10.20
2019-04-30T16:12:12.396Z,10.20
2019-04-30T16:14:46.934Z,10.20
2019-04-30T16:17:29.221Z,10.20
2019-04-30T16:20:12.759Z,10.20
2019-04-30T16:22:43.901Z,10.20
2019-04-30T16:25:14.339Z,10.20
2019-04-30T16:27:44.181Z,10.20
2019-04-30T16:30:14.407Z,10.20
2019-04-30T16:32:50.647Z,10.20
2019-04-30T16:35:19.758Z,10.20
2019-04-30T16:37:49.866Z,10.20
2019-04-30T16:40:20.392Z,10.10
2019-04-30T16:42:50.504Z,10.10
2019-04-30T16:45:20.340Z,10.00
2019-04-30T16:47:52.908Z,10.00
2019-04-30T16:50:23.270Z,10.00
2019-04-30T16:52:52.689Z,10.00
2019-04-30T16:55:22.425Z,9.90
2019-04-30T16:57:51.638Z,9.90
2019-04-30T17:00:22.984Z,9.90
2019-04-30T17:02:54.445Z,9.80
2019-04-30T17:05:29.447Z,9.90
2019-04-30T17:08:01.865Z,9.80
2019-04-30T17:10:50.470Z,9.80
2019-04-30T17:13:33.062Z,9.80
2019-04-30T17:16:11.246Z,9.80
2019-04-30T17:18:41.863Z,9.80
2019-04-30T17:21:11.122Z,9.70
2019-04-30T17:23:40.820Z,9.70
2019-04-30T17:26:10.740Z,9.70
2019-04-30T17:28:40.339Z,9.70
2019-04-30T17:31:10.018Z,9.70
2019-04-30T17:33:39.478Z,9.70
2019-04-30T17:36:11.134Z,9.70
2019-04-30T17:38:40.422Z,9.70
2019-04-30T17:41:09.758Z,9.70
2019-04-30T17:43:41.815Z,9.70
2019-04-30T17:46:11.538Z,9.60
2019-04-30T17:48:41.071Z,9.70
2019-04-30T17:51:10.358Z,9.70
2019-04-30T17:53:41.330Z,9.70
2019-04-30T17:56:10.607Z,9.70
2019-04-30T17:58:40.555Z,9.60
2019-04-30T18:01:10.266Z,9.60
2019-04-30T18:03:41.369Z,9.60
2019-04-30T18:06:10.688Z,9.50
2019-04-30T18:08:40.371Z,9.50
2019-04-30T18:11:10.359Z,9.40
2019-04-30T18:13:40.421Z,9.40
2019-04-30T18:16:10.586Z,9.40
2019-04-30T18:18:59.825Z,9.40
2019-04-30T18:21:30.643Z,9.40
2019-04-30T18:24:12.882Z,9.40
2019-04-30T18:26:47.099Z,9.40
2019-04-30T18:29:16.228Z,9.40
2019-04-30T18:31:46.437Z,9.40
2019-04-30T18:34:19.445Z,9.50
2019-04-30T18:36:52.720Z,9.50
2019-04-30T18:39:21.782Z,9.50
2019-04-30T18:41:54.202Z,9.60
2019-04-30T18:44:26.561Z,9.50
2019-04-30T18:46:58.931Z,9.50
2019-04-30T18:49:28.696Z,9.50
2019-04-30T18:51:59.123Z,9.50
2019-04-30T18:54:29.403Z,9.50
2019-04-30T18:56:59.380Z,9.50
2019-04-30T18:59:32.469Z,9.50
2019-04-30T19:02:00.599Z,9.50
2019-04-30T19:04:34.885Z,9.60
2019-04-30T19:07:06.745Z,9.50
2019-04-30T19:09:41.302Z,9.60
2019-04-30T19:12:30.147Z,9.60
2019-04-30T19:15:13.606Z,9.70
2019-04-30T19:17:45.242Z,9.50
2019-04-30T19:20:22.367Z,9.50
2019-04-30T19:22:52.105Z,9.50
2019-04-30T19:25:21.566Z,9.50
2019-04-30T19:27:51.256Z,9.40
2019-04-30T19:30:21.781Z,9.30
2019-04-30T19:32:51.181Z,9.30
2019-04-30T19:35:20.644Z,9.30
2019-04-30T19:37:52.339Z,9.30
2019-04-30T19:40:28.632Z,9.30
2019-04-30T19:42:56.310Z,9.40
2019-04-30T19:45:26.250Z,9.40
2019-04-30T19:47:56.121Z,9.40
2019-04-30T19:50:26.164Z,9.40
2019-04-30T19:52:55.624Z,9.30
2019-04-30T19:55:25.573Z,9.30
2019-04-30T19:57:55.123Z,9.30
2019-04-30T20:00:26.781Z,9.20
2019-04-30T20:02:59.419Z,9.20
2019-04-30T20:05:28.741Z,9.20
2019-04-30T20:07:59.229Z,9.20
2019-04-30T20:10:28.862Z,9.10
2019-04-30T20:12:59.717Z,9.10
2019-04-30T20:15:30.401Z,9.00
2019-04-30T20:18:01.090Z,9.00
2019-04-30T20:20:32.725Z,9.00
2019-04-30T20:23:03.967Z,9.00
2019-04-30T20:25:37.225Z,9.00
2019-04-30T20:28:08.344Z,9.10
2019-04-30T20:30:39.298Z,9.10
2019-04-30T20:33:18.993Z,9.20
2019-04-30T20:35:55.987Z,9.30
2019-04-30T20:38:38.104Z,9.30
2019-04-30T20:41:09.992Z,9.30
2019-04-30T20:43:39.985Z,9.30
2019-04-30T20:46:13.123Z,9.30
2019-04-30T20:48:42.722Z,9.30
2019-04-30T20:51:17.185Z,9.40
2019-04-30T20:53:46.961Z,9.40
2019-04-30T20:56:19.195Z,9.50
2019-04-30T20:58:58.028Z,9.60
2019-04-30T21:01:22.677Z,9.60
2019-04-30T21:03:53.109Z,9.60
2019-04-30T21:06:22.477Z,9.60
2019-04-30T21:08:51.498Z,9.70
2019-04-30T21:11:21.978Z,9.70
2019-04-30T21:13:51.737Z,9.70
2019-04-30T21:16:21.082Z,9.80
2019-04-30T21:18:51.262Z,9.80
2019-04-30T21:21:20.618Z,9.80
2019-04-30T21:23:50.598Z,9.80
2019-04-30T21:26:20.707Z,9.70
2019-04-30T21:28:51.298Z,9.60
2019-04-30T21:31:42.686Z,9.60
2019-04-30T21:34:22.999Z,9.50
2019-04-30T21:36:52.677Z,9.60
2019-04-30T21:39:23.237Z,9.60
2019-04-30T21:41:53.718Z,9.60
2019-04-30T21:44:23.418Z,9.70
2019-04-30T21:46:56.359Z,9.70
2019-04-30T21:49:26.497Z,9.70
2019-04-30T21:51:56.457Z,9.70
2019-04-30T21:54:25.883Z,9.70
2019-04-30T21:56:55.259Z,9.70
2019-04-30T21:59:24.978Z,9.80
2019-04-30T22:01:54.883Z,9.70
2019-04-30T22:04:24.224Z,9.70
2019-04-30T22:06:53.759Z,9.70
2019-04-30T22:09:23.079Z,9.70
2019-04-30T22:11:53.120Z,9.60
2019-04-30T22:14:22.685Z,9.70
2019-04-30T22:16:53.573Z,9.70
2019-04-30T22:19:22.941Z,9.60
2019-04-30T22:21:52.358Z,9.50
2019-04-30T22:24:21.758Z,9.50
2019-04-30T22:26:50.837Z,9.40
2019-04-30T22:29:20.517Z,9.40
2019-04-30T22:31:50.222Z,9.40
2019-04-30T22:34:19.718Z,9.40
2019-04-30T22:36:49.398Z,9.30
2019-04-30T22:39:37.017Z,9.30
2019-04-30T22:42:30.218Z,9.30
2019-04-30T22:45:00.778Z,9.30
2019-04-30T22:47:30.419Z,9.40
2019-04-30T22:50:00.280Z,9.40
2019-04-30T22:52:31.557Z,9.40
2019-04-30T22:55:01.220Z,9.40
2019-04-30T22:57:30.919Z,9.40
2019-04-30T23:00:00.977Z,9.50
2019-04-30T23:02:32.227Z,9.40
2019-04-30T23:05:02.760Z,9.50
2019-04-30T23:07:32.560Z,9.50
2019-04-30T23:10:02.380Z,9.50
2019-04-30T23:12:32.999Z,9.40
2019-04-30T23:15:02.480Z,9.40
2019-04-30T23:17:33.279Z,9.40
2019-04-30T23:20:03.539Z,9.50
2019-04-30T23:22:38.281Z,9.60
2019-04-30T23:25:07.698Z,9.60
2019-04-30T23:27:37.760Z,9.50
2019-04-30T23:30:08.479Z,9.50
2019-04-30T23:32:38.264Z,9.60
2019-04-30T23:35:08.918Z,9.60
2019-04-30T23:37:42.120Z,9.60
2019-04-30T23:40:29.218Z,9.60
2019-04-30T23:42:59.084Z,9.60
2019-04-30T23:45:29.259Z,9.70
2019-04-30T23:47:59.380Z,9.70
2019-04-30T23:50:30.998Z,9.70
2019-04-30T23:53:03.238Z,9.70
2019-04-30T23:55:33.077Z,9.70
2019-04-30T23:58:02.359Z,9.70
